Аэропорт: Элиста. Элиста

ICAO: URWI

METAR:
2021-04-21 20:30:00
URWI 212030Z AUTO 22003MPS 9999 // NCD 10/07 Q1021
METAR:
2021-04-21 14:00:00
TAF URWI 211400Z 2115/2124 32003G10MPS 6000 SCT016 SCT030CB TEMPO 2115/2124 28003G10MPS